Time;durP1;ratioP1;P1;durP2;ratioP2;P2;SDS_P1;SDS_P2;PMS_P1;PMS_P2;Temp;Humidity;BMP_temperature;BMP_pressure;BME280_temperature;BME280_humidity;BME280_pressure;Samples;Min_cycle;Max_cycle;Signal;HPM_P1;HPM_P2
2023/10/13 00:00:41;;;;;;;;;;;;;;;;;;5056676;28;20052;-47
2023/10/13 00:03:14;;;;;;;17.75;15.27;;;;;;;;;;5054749;28;19916;-45
2023/10/13 00:05:41;;;;;;;18.95;15.48;;;;;;;;;;5065604;28;20076;-46
2023/10/13 00:08:08;;;;;;;18.65;16.70;;;;;;;;;;5055849;28;20135;-48
2023/10/13 00:10:34;;;;;;;19.52;14.52;;;;;;;;;;5055276;28;20466;-46
2023/10/13 00:13:41;;;;;;;19.42;17.38;;;;;;;;;;5056388;28;20102;-44
2023/10/13 00:15:57;;;;;;;19.30;15.73;;;;;;;;;;5057799;28;20037;-46
2023/10/13 00:18:43;;;;;;;18.92;16.73;;;;;;;;;;5054152;28;20067;-48
2023/10/13 00:21:13;;;;;;;18.70;15.85;;;;;;;;;;5061597;28;20039;-48
2023/10/13 00:23:52;;;;;;;20.50;15.32;;;;;;;;;;5072668;28;20028;-46
2023/10/13 00:26:23;;;;;;;19.05;15.20;;;;;;;;;;5045288;28;20060;-46
2023/10/13 00:28:58;;;;;;;19.10;15.00;;;;;;;;;;5057667;28;20029;-48
2023/10/13 00:31:26;;;;;;;20.27;16.70;;;;;;;;;;5050988;28;20097;-45
2023/10/13 00:33:55;;;;;;;20.35;16.60;;;;;;;;;;5058826;28;20028;-47
2023/10/13 00:36:21;;;;;;;18.52;16.20;;;;;;;;;;5055507;28;20108;-47
2023/10/13 00:38:53;;;;;;;20.00;16.08;;;;;;;;;;5051595;28;20101;-46
2023/10/13 00:41:34;;;;;;;18.90;14.70;;;;;;;;;;5055595;28;20025;-43
2023/10/13 00:44:07;;;;;;;18.20;13.82;;;;;;;;;;5059652;28;20043;-48
2023/10/13 00:46:35;;;;;;;17.85;14.38;;;;;;;;;;5057281;28;20017;-46
2023/10/13 00:49:04;;;;;;;17.75;15.80;;;;;;;;;;5049987;28;20043;-44
2023/10/13 00:51:36;;;;;;;18.20;14.43;;;;;;;;;;5047899;28;20043;-46
2023/10/13 00:54:11;;;;;;;19.73;16.77;;;;;;;;;;5062101;28;20028;-45
2023/10/13 00:56:49;;;;;;;;;;;;;;;;;;5059532;28;20048;-47
2023/10/13 00:59:16;;;;;;;19.15;14.30;;;;;;;;;;5057222;28;19920;-44
2023/10/13 01:01:44;;;;;;;18.02;14.32;;;;;;;;;;5055889;28;20125;-47
2023/10/13 01:04:14;;;;;;;17.42;13.43;;;;;;;;;;5058453;28;20102;-46
2023/10/13 01:06:40;;;;;;;19.05;14.40;;;;;;;;;;5047620;28;20453;-45
2023/10/13 01:09:16;;;;;;;17.15;13.77;;;;;;;;;;5060929;28;20021;-45
2023/10/13 01:11:44;;;;;;;16.40;14.05;;;;;;;;;;5047854;28;20441;-46
2023/10/13 01:14:17;;;;;;;17.77;13.27;;;;;;;;;;5056432;28;20027;-45
2023/10/13 01:16:45;;;;;;;18.77;14.63;;;;;;;;;;5055108;28;20051;-45
2023/10/13 01:19:14;;;;;;;17.67;15.77;;;;;;;;;;5055874;28;20032;-49
2023/10/13 01:21:44;;;;;;;17.27;14.40;;;;;;;;;;5043247;28;20446;-46
2023/10/13 01:24:13;;;;;;;18.67;15.48;;;;;;;;;;5050961;28;20029;-48
2023/10/13 01:26:38;;;;;;;;;;;;;;;;;;5059620;28;20405;-51
2023/10/13 01:29:12;;;;;;;18.88;15.00;;;;;;;;;;5055531;28;20050;-44
2023/10/13 01:31:47;;;;;;;16.88;14.10;;;;;;;;;;5052803;28;20041;-46
2023/10/13 01:34:21;;;;;;;16.98;14.02;;;;;;;;;;5065835;28;20470;-47
2023/10/13 01:36:55;;;;;;;15.73;13.27;;;;;;;;;;5054852;28;20037;-48
2023/10/13 01:39:26;;;;;;;17.70;13.10;;;;;;;;;;5058636;28;20493;-47
2023/10/13 01:41:55;;;;;;;16.45;14.20;;;;;;;;;;5053382;28;20044;-45
2023/10/13 01:44:26;;;;;;;18.38;13.93;;;;;;;;;;5061414;28;20028;-44
2023/10/13 01:46:51;;;;;;;15.73;14.02;;;;;;;;;;5056976;28;20056;-47
2023/10/13 01:49:17;;;;;;;15.70;14.07;;;;;;;;;;5054981;28;20029;-49
2023/10/13 01:51:42;;;;;;;17.48;14.00;;;;;;;;;;5059576;28;20037;-46
2023/10/13 01:54:12;;;;;;;17.42;14.27;;;;;;;;;;5064906;28;20053;-49
2023/10/13 01:56:42;;;;;;;16.13;12.65;;;;;;;;;;5054580;28;20375;-50
2023/10/13 01:59:11;;;;;;;17.02;14.02;;;;;;;;;;5057850;28;20055;-44
2023/10/13 02:01:38;;;;;;;14.55;12.60;;;;;;;;;;5052252;28;20029;-48
2023/10/13 02:04:04;;;;;;;16.77;12.48;;;;;;;;;;5057007;28;20123;-46
2023/10/13 02:06:34;;;;;;;16.50;12.75;;;;;;;;;;5057290;28;20073;-49
2023/10/13 02:09:16;;;;;;;16.20;12.80;;;;;;;;;;5062413;28;20032;-47
2023/10/13 02:11:46;;;;;;;14.88;12.50;;;;;;;;;;5041923;28;20036;-43
2023/10/13 02:14:16;;;;;;;14.50;12.20;;;;;;;;;;5047205;28;20071;-47
2023/10/13 02:16:41;;;;;;;15.00;12.63;;;;;;;;;;5059128;28;20041;-48
2023/10/13 02:19:15;;;;;;;16.67;12.23;;;;;;;;;;5055332;28;20025;-46
2023/10/13 02:21:43;;;;;;;14.52;11.88;;;;;;;;;;5057868;28;20036;-46
2023/10/13 02:24:18;;;;;;;12.57;10.55;;;;;;;;;;5053933;28;20523;-49
2023/10/13 02:26:44;;;;;;;15.13;12.82;;;;;;;;;;5061496;28;20514;-50
2023/10/13 02:29:13;;;;;;;13.20;11.80;;;;;;;;;;5064100;28;20021;-51
2023/10/13 02:31:42;;;;;;;14.05;12.57;;;;;;;;;;5055055;28;20508;-47
2023/10/13 02:34:08;;;;;;;13.45;12.10;;;;;;;;;;5057683;28;20056;-45
2023/10/13 02:36:46;;;;;;;13.65;12.20;;;;;;;;;;5057846;28;20394;-46
2023/10/13 02:39:13;;;;;;;14.57;11.38;;;;;;;;;;5053049;28;20029;-46
2023/10/13 02:41:41;;;;;;;14.88;11.73;;;;;;;;;;5058822;28;20048;-46
2023/10/13 02:44:08;;;;;;;12.77;11.45;;;;;;;;;;5068237;28;20406;-47
2023/10/13 02:46:39;;;;;;;12.50;11.27;;;;;;;;;;5055359;28;20029;-48
2023/10/13 02:49:11;;;;;;;13.15;11.60;;;;;;;;;;5059664;28;20037;-48
2023/10/13 02:51:37;;;;;;;12.70;10.55;;;;;;;;;;5063957;28;20036;-46
2023/10/13 02:54:10;;;;;;;14.63;10.63;;;;;;;;;;5061307;28;20087;-47
2023/10/13 02:56:36;;;;;;;12.55;10.90;;;;;;;;;;5063452;28;20490;-49
2023/10/13 02:59:05;;;;;;;11.48;10.30;;;;;;;;;;5057421;28;20033;-47
2023/10/13 03:01:35;;;;;;;11.30;9.73;;;;;;;;;;5056416;28;20827;-45
2023/10/13 03:04:12;;;;;;;14.88;13.23;;;;;;;;;;5056153;28;20028;-47
2023/10/13 03:06:40;;;;;;;15.00;11.68;;;;;;;;;;5065701;28;20040;-49
2023/10/13 03:09:21;;;;;;;13.15;11.75;;;;;;;;;;5053465;28;20379;-50
2023/10/13 03:11:50;;;;;;;12.60;11.27;;;;;;;;;;5051928;28;20037;-46
2023/10/13 03:14:32;;;;;;;13.52;11.00;;;;;;;;;;5060233;28;20025;-45
2023/10/13 03:17:02;;;;;;;13.32;11.93;;;;;;;;;;5061851;28;20059;-49
2023/10/13 03:19:32;;;;;;;12.40;10.80;;;;;;;;;;5057168;28;20070;-47
2023/10/13 03:22:07;;;;;;;14.55;12.43;;;;;;;;;;5055456;28;20052;-46
2023/10/13 03:24:35;;;;;;;13.10;11.75;;;;;;;;;;5068212;28;20025;-47
2023/10/13 03:27:09;;;;;;;15.30;12.75;;;;;;;;;;5055191;28;20111;-45
2023/10/13 03:29:36;;;;;;;14.07;12.80;;;;;;;;;;5060948;28;20016;-46
2023/10/13 03:32:07;;;;;;;14.65;13.25;;;;;;;;;;5054215;28;20446;-47
2023/10/13 03:34:34;;;;;;;14.52;13.00;;;;;;;;;;5064211;28;20055;-46
2023/10/13 03:37:06;;;;;;;12.88;11.02;;;;;;;;;;5061847;28;20126;-44
2023/10/13 03:39:31;;;;;;;11.98;10.25;;;;;;;;;;5066300;28;20056;-46
2023/10/13 03:41:58;;;;;;;13.95;12.10;;;;;;;;;;5060258;28;20862;-48
2023/10/13 03:44:23;;;;;;;14.18;11.13;;;;;;;;;;5061888;28;20032;-48
2023/10/13 03:46:49;;;;;;;13.57;11.43;;;;;;;;;;5056846;28;20060;-45
2023/10/13 03:49:21;;;;;;;13.18;11.00;;;;;;;;;;5061252;28;20021;-46
2023/10/13 03:51:47;;;;;;;10.90;9.55;;;;;;;;;;5053632;28;20041;-44
2023/10/13 03:54:16;;;;;;;13.52;12.15;;;;;;;;;;5058562;28;20364;-47
2023/10/13 03:56:44;;;;;;;;;;;;;;;;;;5057412;28;20127;-47
2023/10/13 03:59:17;;;;;;;13.70;12.40;;;;;;;;;;5058566;28;20411;-44
2023/10/13 04:01:46;;;;;;;14.70;11.80;;;;;;;;;;5055996;28;20043;-44
2023/10/13 04:04:34;;;;;;;13.63;11.93;;;;;;;;;;5056530;28;20386;-47
2023/10/13 04:17:23;;;;;;;14.50;12.23;;;;;;;;;;5057971;28;20115;-45
2023/10/13 04:36:14;;;;;;;14.52;10.98;;;;;;;;;;5059574;28;20056;-47
2023/10/13 05:06:10;;;;;;;12.35;11.00;;;;;;;;;;5054761;28;20448;-46
2023/10/13 05:46:49;;;;;;;12.43;10.43;;;;;;;;;;5049491;28;20056;-47
2023/10/13 06:30:12;;;;;;;12.00;9.95;;;;;;;;;;5062696;28;20620;-49
2023/10/13 06:32:39;;;;;;;13.07;10.63;;;;;;;;;;5058925;28;20044;-49
2023/10/13 06:35:18;;;;;;;12.30;10.80;;;;;;;;;;5053564;28;20060;-46
2023/10/13 06:37:44;;;;;;;11.82;10.23;;;;;;;;;;5053741;28;20037;-46
2023/10/13 06:43:12;;;;;;;12.50;11.30;;;;;;;;;;5013498;28;20050;-48
2023/10/13 06:45:43;;;;;;;12.10;10.90;;;;;;;;;;5050621;28;20037;-50
2023/10/13 06:48:14;;;;;;;12.07;9.40;;;;;;;;;;5061551;28;20049;-51
2023/10/13 06:50:41;;;;;;;11.25;10.07;;;;;;;;;;5063691;28;20466;-44
2023/10/13 06:53:07;;;;;;;12.80;10.27;;;;;;;;;;5064027;28;20068;-50
2023/10/13 06:55:36;;;;;;;13.65;11.77;;;;;;;;;;5055265;28;20648;-48
2023/10/13 06:58:02;;;;;;;10.95;9.48;;;;;;;;;;5049112;28;20038;-50
2023/10/13 07:00:38;;;;;;;13.27;10.80;;;;;;;;;;5061403;28;20029;-51
2023/10/13 07:03:17;;;;;;;12.40;10.43;;;;;;;;;;5058648;28;20100;-45
2023/10/13 07:05:43;;;;;;;11.02;9.73;;;;;;;;;;5054505;28;20033;-48
2023/10/13 07:08:14;;;;;;;12.82;9.40;;;;;;;;;;5057138;28;20040;-48
2023/10/13 07:11:08;;;;;;;11.60;10.18;;;;;;;;;;5063516;28;20068;-48
2023/10/13 07:13:47;;;;;;;11.50;10.40;;;;;;;;;;5053741;28;20037;-49
2023/10/13 07:16:12;;;;;;;13.55;9.35;;;;;;;;;;5064113;28;20037;-48
2023/10/13 07:18:49;;;;;;;13.77;10.60;;;;;;;;;;5050738;28;20091;-48
2023/10/13 07:21:15;;;;;;;12.68;11.38;;;;;;;;;;5055879;28;20054;-47
2023/10/13 07:23:46;;;;;;;14.38;11.45;;;;;;;;;;5061135;28;20124;-48
2023/10/13 07:26:11;;;;;;;13.68;9.88;;;;;;;;;;5058254;28;20056;-51
2023/10/13 07:28:43;;;;;;;11.48;10.38;;;;;;;;;;5050626;28;20079;-45
2023/10/13 07:31:20;;;;;;;13.02;11.60;;;;;;;;;;5056871;28;20163;-48
2023/10/13 07:33:46;;;;;;;13.35;11.50;;;;;;;;;;5051969;28;20056;-46
2023/10/13 07:36:15;;;;;;;12.20;10.93;;;;;;;;;;5056717;28;20044;-49
2023/10/13 07:38:59;;;;;;;12.18;10.48;;;;;;;;;;5054220;28;20045;-46
2023/10/13 07:41:30;;;;;;;11.55;10.02;;;;;;;;;;5061077;28;20036;-47
2023/10/13 07:43:57;;;;;;;13.38;12.02;;;;;;;;;;5064896;28;20523;-49
2023/10/13 07:46:29;;;;;;;13.60;12.20;;;;;;;;;;5057278;28;20444;-47
2023/10/13 07:49:08;;;;;;;12.27;11.07;;;;;;;;;;5060904;28;20084;-49
2023/10/13 07:51:40;;;;;;;11.23;9.63;;;;;;;;;;5058801;28;20044;-46
2023/10/13 07:54:11;;;;;;;14.40;11.38;;;;;;;;;;5060127;28;20098;-49
2023/10/13 07:56:39;;;;;;;11.82;10.55;;;;;;;;;;5052850;28;20044;-47
2023/10/13 07:59:08;;;;;;;12.38;11.07;;;;;;;;;;5057268;28;20028;-45
2023/10/13 08:01:34;;;;;;;10.77;9.35;;;;;;;;;;5056945;28;20021;-46
2023/10/13 08:04:11;;;;;;;11.02;9.63;;;;;;;;;;5057406;28;20050;-46
2023/10/13 08:06:38;;;;;;;11.27;10.10;;;;;;;;;;5043144;28;20037;-46
2023/10/13 08:09:29;;;;;;;11.40;9.48;;;;;;;;;;5061835;28;20040;-48
2023/10/13 08:11:55;;;;;;;11.77;9.95;;;;;;;;;;5048933;28;20053;-50
2023/10/13 08:14:28;;;;;;;11.57;10.05;;;;;;;;;;5054353;28;20028;-46
2023/10/13 08:16:55;;;;;;;9.88;8.93;;;;;;;;;;5058924;28;20041;-47
2023/10/13 08:19:31;;;;;;;10.68;9.35;;;;;;;;;;5058281;28;20029;-50
2023/10/13 08:21:59;;;;;;;13.00;10.57;;;;;;;;;;5057048;28;20440;-45
2023/10/13 08:25:20;;;;;;;11.10;9.90;;;;;;;;;;5055395;28;20451;-49
2023/10/13 08:58:59;;;;;;;10.75;8.10;;;;;;;;;;5045429;28;20052;-45
2023/10/13 09:01:13;;;;;;;10.93;8.98;;;;;;;;;;5056084;28;20037;-48
2023/10/13 09:03:41;;;;;;;11.27;9.50;;;;;;;;;;5057431;28;20033;-45
2023/10/13 09:06:14;;;;;;;10.70;8.27;;;;;;;;;;5058573;28;20123;-50
2023/10/13 09:09:04;;;;;;;8.98;8.07;;;;;;;;;;5061411;28;20037;-51
2023/10/13 09:11:50;;;;;;;9.38;8.43;;;;;;;;;;5063886;28;20023;-48
2023/10/13 09:14:35;;;;;;;11.52;9.10;;;;;;;;;;5050629;28;20029;-49
2023/10/13 09:17:12;;;;;;;8.80;8.00;;;;;;;;;;5059461;28;20052;-51
2023/10/13 09:19:49;;;;;;;9.10;7.53;;;;;;;;;;5055670;28;20024;-46
2023/10/13 09:22:35;;;;;;;9.35;8.05;;;;;;;;;;5053173;28;20120;-48
2023/10/13 09:25:02;;;;;;;11.23;7.97;;;;;;;;;;5060624;28;20036;-46
2023/10/13 09:27:32;;;;;;;9.63;8.70;;;;;;;;;;5057632;28;20033;-49
2023/10/13 09:32:48;;;;;;;10.35;7.85;;;;;;;;;;5053041;28;20063;-49
2023/10/13 09:35:27;;;;;;;14.60;8.07;;;;;;;;;;5055622;28;20021;-49
2023/10/13 09:37:56;;;;;;;9.02;7.10;;;;;;;;;;5052275;28;20037;-48
2023/10/13 09:40:25;;;;;;;9.85;7.30;;;;;;;;;;5053715;28;20093;-47
2023/10/13 09:42:56;;;;;;;9.07;7.72;;;;;;;;;;5049545;28;20037;-46
2023/10/13 09:45:36;;;;;;;8.48;7.70;;;;;;;;;;5048977;28;20021;-51
2023/10/13 09:48:06;;;;;;;8.88;7.82;;;;;;;;;;5047581;28;20087;-47
2023/10/13 09:50:37;;;;;;;9.18;8.38;;;;;;;;;;5056075;28;20043;-48
2023/10/13 09:53:08;;;;;;;8.80;7.03;;;;;;;;;;5052917;28;20033;-46
2023/10/13 09:55:39;;;;;;;10.55;6.82;;;;;;;;;;5055551;28;20104;-47
2023/10/13 09:58:14;;;;;;;7.45;6.28;;;;;;;;;;5059880;28;20063;-50
2023/10/13 10:00:49;;;;;;;9.70;7.10;;;;;;;;;;5061450;28;20478;-49
2023/10/13 10:03:15;;;;;;;8.68;6.50;;;;;;;;;;5054266;28;20033;-50
2023/10/13 10:05:59;;;;;;;8.25;7.13;;;;;;;;;;5056300;28;20013;-49
2023/10/13 10:08:32;;;;;;;7.55;6.75;;;;;;;;;;5057748;28;20051;-46
2023/10/13 10:11:15;;;;;;;9.00;6.05;;;;;;;;;;5066018;28;20032;-48
2023/10/13 10:14:00;;;;;;;10.90;6.35;;;;;;;;;;5051862;28;20061;-51
2023/10/13 10:17:03;;;;;;;8.82;8.02;;;;;;;;;;5051851;28;20029;-46
2023/10/13 10:19:30;;;;;;;6.85;5.55;;;;;;;;;;5054316;28;20035;-50
2023/10/13 10:22:19;;;;;;;7.53;6.68;;;;;;;;;;5046085;28;20041;-48
2023/10/13 10:24:45;;;;;;;7.93;6.53;;;;;;;;;;5044138;28;20108;-45
2023/10/13 10:27:14;;;;;;;8.68;6.40;;;;;;;;;;5056788;28;20037;-47
2023/10/13 10:30:00;;;;;;;;;;;;;;;;;;5053341;28;20032;-50
2023/10/13 10:33:08;;;;;;;7.28;6.32;;;;;;;;;;5056983;28;19948;-48
2023/10/13 10:35:35;;;;;;;8.93;5.85;;;;;;;;;;5052295;28;20033;-48
2023/10/13 10:41:00;;;;;;;5.95;5.03;;;;;;;;;;5056502;28;20984;-49
2023/10/13 10:43:42;;;;;;;5.10;4.60;;;;;;;;;;5054266;28;20086;-45
2023/10/13 10:46:29;;;;;;;6.05;5.45;;;;;;;;;;5048178;28;20028;-49
2023/10/13 10:49:00;;;;;;;5.70;4.88;;;;;;;;;;5052705;28;22895;-46
2023/10/13 10:51:31;;;;;;;6.80;5.45;;;;;;;;;;5054410;28;20024;-48
2023/10/13 10:53:57;;;;;;;6.30;5.70;;;;;;;;;;5053157;28;20021;-47
2023/10/13 10:56:45;;;;;;;6.70;6.00;;;;;;;;;;5050423;28;20053;-45
2023/10/13 10:59:18;;;;;;;6.70;5.78;;;;;;;;;;5060833;28;20044;-47
2023/10/13 11:01:50;;;;;;;6.70;6.10;;;;;;;;;;5069013;28;20091;-47
2023/10/13 11:06:56;;;;;;;8.05;5.60;;;;;;;;;;5048497;28;20045;-47
2023/10/13 11:09:36;;;;;;;6.75;5.57;;;;;;;;;;5049159;28;20033;-45
2023/10/13 11:12:14;;;;;;;6.28;5.70;;;;;;;;;;5057227;28;20060;-47
2023/10/13 11:14:40;;;;;;;7.97;7.18;;;;;;;;;;5057328;28;20058;-48
2023/10/13 11:17:18;;;;;;;6.50;5.95;;;;;;;;;;5051541;28;20049;-48
2023/10/13 11:19:44;;;;;;;7.22;6.20;;;;;;;;;;5058136;28;20036;-49
2023/10/13 11:22:31;;;;;;;6.40;5.75;;;;;;;;;;5066751;28;20048;-46
2023/10/13 11:25:09;;;;;;;6.72;6.07;;;;;;;;;;5046428;28;20024;-47
2023/10/13 11:30:20;;;;;;;8.55;6.20;;;;;;;;;;5057433;28;20043;-45
2023/10/13 11:33:05;;;;;;;7.15;6.45;;;;;;;;;;5064911;28;20043;-47
2023/10/13 11:38:26;;;;;;;5.72;5.15;;;;;;;;;;5065594;28;20037;-49
2023/10/13 11:48:37;;;;;;;6.90;6.20;;;;;;;;;;5056743;28;20048;-49
2023/10/13 11:51:07;;;;;;;7.13;5.93;;;;;;;;;;5051591;28;20047;-46
2023/10/13 11:53:36;;;;;;;6.90;6.20;;;;;;;;;;5060988;28;20051;-48
2023/10/13 11:56:11;;;;;;;7.25;6.57;;;;;;;;;;5054087;28;20040;-46
2023/10/13 11:58:40;;;;;;;6.50;5.85;;;;;;;;;;5054400;28;20487;-47
2023/10/13 12:11:46;;;;;;;5.70;5.03;;;;;;;;;;5048179;28;20033;-46
2023/10/13 12:14:21;;;;;;;7.55;5.50;;;;;;;;;;5062310;28;20074;-50
2023/10/13 12:16:48;;;;;;;6.95;6.35;;;;;;;;;;5057850;28;20041;-48
2023/10/13 12:19:16;;;;;;;7.95;5.75;;;;;;;;;;5055793;28;20029;-52
2023/10/13 12:21:43;;;;;;;7.63;6.45;;;;;;;;;;5056588;28;20095;-47
2023/10/13 12:24:21;;;;;;;9.48;5.90;;;;;;;;;;5056672;28;20126;-46
2023/10/13 12:26:48;;;;;;;5.80;5.20;;;;;;;;;;5056756;28;20061;-47
2023/10/13 12:29:22;;;;;;;9.43;8.45;;;;;;;;;;5055405;28;20107;-47
2023/10/13 12:32:05;;;;;;;8.38;6.03;;;;;;;;;;5057155;28;20083;-48
2023/10/13 12:51:07;;;;;;;5.10;4.60;;;;;;;;;;5054393;28;20509;-48
2023/10/13 12:53:33;;;;;;;7.15;5.57;;;;;;;;;;5059813;28;20442;-49
2023/10/13 12:55:59;;;;;;;6.65;5.97;;;;;;;;;;5056982;28;20036;-50
2023/10/13 12:58:26;;;;;;;6.07;5.22;;;;;;;;;;5052812;28;20167;-51
2023/10/13 13:01:01;;;;;;;6.45;5.15;;;;;;;;;;5053355;28;20033;-53
2023/10/13 13:03:29;;;;;;;6.00;4.97;;;;;;;;;;5060076;28;20037;-48
2023/10/13 13:05:55;;;;;;;7.93;6.13;;;;;;;;;;5061178;28;20418;-47
2023/10/13 13:08:24;;;;;;;8.48;4.88;;;;;;;;;;5058427;28;20036;-49
2023/10/13 13:10:49;;;;;;;;;;;;;;;;;;5066464;28;20056;-46
2023/10/13 13:13:16;;;;;;;5.90;4.60;;;;;;;;;;5053544;28;19970;-47
2023/10/13 13:15:42;;;;;;;5.85;4.95;;;;;;;;;;5051588;28;20029;-45
2023/10/13 13:18:11;;;;;;;6.35;5.32;;;;;;;;;;5059780;28;20048;-48
2023/10/13 13:20:43;;;;;;;6.20;5.35;;;;;;;;;;5056079;28;20051;-48
2023/10/13 13:23:12;;;;;;;6.18;5.05;;;;;;;;;;5048479;28;20033;-46
2023/10/13 13:25:42;;;;;;;5.38;4.40;;;;;;;;;;5048694;28;20029;-46
2023/10/13 13:28:09;;;;;;;7.43;4.68;;;;;;;;;;5049969;28;20041;-50
2023/10/13 13:30:37;;;;;;;8.45;4.53;;;;;;;;;;5047034;28;20029;-45
2023/10/13 13:33:12;;;;;;;7.07;5.45;;;;;;;;;;5054692;28;20067;-47
2023/10/13 13:35:44;;;;;;;7.57;5.72;;;;;;;;;;5059562;28;20029;-47
2023/10/13 13:38:09;;;;;;;11.77;5.43;;;;;;;;;;5050526;28;20045;-45
2023/10/13 13:40:38;;;;;;;4.28;3.72;;;;;;;;;;5058962;28;20028;-46
2023/10/13 13:43:06;;;;;;;6.18;5.20;;;;;;;;;;5048577;28;20403;-47
2023/10/13 13:45:34;;;;;;;6.60;5.15;;;;;;;;;;5056792;28;20028;-47
2023/10/13 13:47:59;;;;;;;7.18;4.80;;;;;;;;;;5058204;28;20177;-47
2023/10/13 13:50:28;;;;;;;6.32;5.70;;;;;;;;;;5056082;28;20060;-48
2023/10/13 13:52:55;;;;;;;;;;;;;;;;;;5055243;28;20037;-48
2023/10/13 13:55:28;;;;;;;6.13;5.57;;;;;;;;;;5054310;28;19917;-48
2023/10/13 13:57:55;;;;;;;7.50;6.05;;;;;;;;;;5057297;28;20095;-52
2023/10/13 14:00:36;;;;;;;6.20;5.63;;;;;;;;;;5065173;28;20544;-48
2023/10/13 14:03:12;;;;;;;8.73;5.63;;;;;;;;;;5048769;28;20051;-47
2023/10/13 14:05:41;;;;;;;9.10;5.40;;;;;;;;;;5058568;28;20024;-50
2023/10/13 14:08:11;;;;;;;6.85;5.35;;;;;;;;;;5058966;28;20074;-47
2023/10/13 14:11:13;;;;;;;7.18;5.35;;;;;;;;;;5056073;28;20538;-51
2023/10/13 14:13:47;;;;;;;8.88;5.25;;;;;;;;;;5044527;28;20033;-50
2023/10/13 14:16:16;;;;;;;6.28;5.68;;;;;;;;;;5046508;28;20032;-51
2023/10/13 14:18:43;;;;;;;7.95;5.07;;;;;;;;;;5052342;28;20048;-45
2023/10/13 14:21:08;;;;;;;5.05;4.38;;;;;;;;;;5049912;28;20399;-45
2023/10/13 14:23:34;;;;;;;9.18;5.15;;;;;;;;;;5054628;28;20105;-46
2023/10/13 14:25:59;;;;;;;5.50;4.82;;;;;;;;;;5054178;28;20033;-49
2023/10/13 14:28:34;;;;;;;7.03;4.40;;;;;;;;;;5056589;28;20568;-49
2023/10/13 14:31:09;;;;;;;7.15;4.43;;;;;;;;;;5058283;28;20575;-49
2023/10/13 14:33:36;;;;;;;7.13;4.60;;;;;;;;;;5053603;28;20403;-47
2023/10/13 14:36:04;;;;;;;11.60;5.38;;;;;;;;;;5057060;28;20040;-48
2023/10/13 14:38:30;;;;;;;4.88;4.22;;;;;;;;;;5056923;28;20504;-45
2023/10/13 14:40:57;;;;;;;7.70;4.85;;;;;;;;;;5058975;28;20154;-48
2023/10/13 14:43:27;;;;;;;6.28;4.65;;;;;;;;;;5059890;28;20036;-49
2023/10/13 14:45:53;;;;;;;5.57;5.03;;;;;;;;;;5060204;28;20023;-49
2023/10/13 14:48:18;;;;;;;8.32;4.25;;;;;;;;;;5058527;28;20032;-50
2023/10/13 14:50:45;;;;;;;7.50;5.25;;;;;;;;;;5055553;28;20025;-46
2023/10/13 14:53:11;;;;;;;5.65;5.10;;;;;;;;;;5061337;28;20048;-50
2023/10/13 14:55:39;;;;;;;6.43;5.03;;;;;;;;;;5059042;28;20055;-48
2023/10/13 14:58:07;;;;;;;6.43;5.18;;;;;;;;;;5065688;28;20048;-46
2023/10/13 15:00:34;;;;;;;4.95;4.38;;;;;;;;;;5058522;28;20025;-47
2023/10/13 15:03:06;;;;;;;7.75;5.75;;;;;;;;;;5057968;28;20048;-49
2023/10/13 15:05:33;;;;;;;8.45;4.85;;;;;;;;;;5056405;28;20088;-47
2023/10/13 15:07:59;;;;;;;8.55;5.45;;;;;;;;;;5056442;28;20560;-51
2023/10/13 15:10:25;;;;;;;6.18;5.57;;;;;;;;;;5058421;28;20041;-47
2023/10/13 15:12:51;;;;;;;8.32;4.82;;;;;;;;;;5062814;28;20538;-48
2023/10/13 15:15:18;;;;;;;5.60;5.03;;;;;;;;;;5057926;28;20033;-48
2023/10/13 15:17:48;;;;;;;6.40;4.32;;;;;;;;;;5061771;28;20033;-51
2023/10/13 15:20:16;;;;;;;5.80;4.53;;;;;;;;;;5044007;28;20043;-48
2023/10/13 15:22:48;;;;;;;6.90;4.93;;;;;;;;;;5057142;28;20048;-51
2023/10/13 15:25:20;;;;;;;6.60;4.95;;;;;;;;;;5058388;28;20114;-49
2023/10/13 15:27:55;;;;;;;6.97;4.40;;;;;;;;;;5054288;28;20041;-46
2023/10/13 15:30:26;;;;;;;11.55;5.80;;;;;;;;;;5047453;28;20036;-52
2023/10/13 15:32:53;;;;;;;7.60;5.43;;;;;;;;;;5051135;28;20044;-48
2023/10/13 15:35:19;;;;;;;6.25;4.97;;;;;;;;;;5052744;28;20064;-49
2023/10/13 15:37:47;;;;;;;6.28;5.38;;;;;;;;;;5057116;28;20438;-46
2023/10/13 15:40:16;;;;;;;7.50;4.55;;;;;;;;;;5057289;28;20525;-48
2023/10/13 15:42:44;;;;;;;6.13;4.75;;;;;;;;;;5062763;28;20446;-47
2023/10/13 15:45:16;;;;;;;15.50;6.30;;;;;;;;;;5057862;28;20060;-48
2023/10/13 15:47:45;;;;;;;7.72;5.90;;;;;;;;;;5055229;28;20047;-48
2023/10/13 15:50:15;;;;;;;7.72;5.57;;;;;;;;;;5060643;28;20032;-48
2023/10/13 15:52:46;;;;;;;7.45;5.40;;;;;;;;;;5055674;28;20674;-48
2023/10/13 15:55:13;;;;;;;7.18;5.60;;;;;;;;;;5059792;28;20025;-50
2023/10/13 15:57:40;;;;;;;6.93;5.50;;;;;;;;;;5057511;28;20033;-47
2023/10/13 16:00:25;;;;;;;7.65;4.45;;;;;;;;;;5052584;28;20021;-49
2023/10/13 16:02:54;;;;;;;4.97;4.32;;;;;;;;;;5049848;28;20128;-48
2023/10/13 16:05:22;;;;;;;13.13;6.13;;;;;;;;;;5052488;28;20477;-48
2023/10/13 16:07:52;;;;;;;5.43;4.60;;;;;;;;;;5062163;28;20041;-50
2023/10/13 16:10:20;;;;;;;7.05;4.45;;;;;;;;;;5055809;28;20394;-47
2023/10/13 16:12:46;;;;;;;7.63;4.75;;;;;;;;;;5054653;28;20041;-47
2023/10/13 16:15:13;;;;;;;9.57;5.18;;;;;;;;;;5052272;28;20681;-50
2023/10/13 16:17:43;;;;;;;6.75;5.00;;;;;;;;;;5054821;28;20549;-49
2023/10/13 16:20:18;;;;;;;5.85;4.43;;;;;;;;;;5056100;28;20021;-45
2023/10/13 16:22:45;;;;;;;10.15;4.72;;;;;;;;;;5056224;28;20526;-47
2023/10/13 16:25:12;;;;;;;8.10;5.18;;;;;;;;;;5057170;28;20025;-52
2023/10/13 16:27:40;;;;;;;8.45;5.53;;;;;;;;;;5053351;28;20041;-45
2023/10/13 16:30:09;;;;;;;9.32;4.63;;;;;;;;;;5050399;28;20471;-49
2023/10/13 16:32:35;;;;;;;7.25;4.65;;;;;;;;;;5051880;28;20037;-47
2023/10/13 16:35:05;;;;;;;6.57;5.95;;;;;;;;;;5050468;28;20024;-50
2023/10/13 16:37:31;;;;;;;6.72;5.50;;;;;;;;;;5048480;28;20124;-46
2023/10/13 16:40:04;;;;;;;5.90;5.00;;;;;;;;;;5051825;28;20100;-47
2023/10/13 16:42:33;;;;;;;7.00;5.15;;;;;;;;;;5052799;28;20079;-46
2023/10/13 16:45:14;;;;;;;7.97;6.07;;;;;;;;;;5054147;28;20058;-49
2023/10/13 16:47:42;;;;;;;9.00;5.32;;;;;;;;;;5049914;28;20107;-47
2023/10/13 16:50:09;;;;;;;6.80;4.20;;;;;;;;;;5049030;28;20479;-45
2023/10/13 16:52:34;;;;;;;6.75;4.25;;;;;;;;;;5050977;28;20082;-46
2023/10/13 16:55:00;;;;;;;7.10;6.25;;;;;;;;;;5051925;28;20088;-48
2023/10/13 16:57:26;;;;;;;6.65;4.45;;;;;;;;;;5061101;28;20041;-46
2023/10/13 16:59:51;;;;;;;7.40;5.35;;;;;;;;;;5053515;28;20036;-45
2023/10/13 17:02:17;;;;;;;9.50;5.03;;;;;;;;;;5057417;28;20040;-49
2023/10/13 17:04:42;;;;;;;6.18;5.57;;;;;;;;;;5052865;28;20086;-48
2023/10/13 17:07:08;;;;;;;7.72;5.90;;;;;;;;;;5050752;28;20033;-47
2023/10/13 17:09:33;;;;;;;9.85;5.47;;;;;;;;;;5062113;28;20461;-45
2023/10/13 17:11:59;;;;;;;6.93;5.00;;;;;;;;;;5048848;28;20041;-47
2023/10/13 17:14:24;;;;;;;8.52;5.13;;;;;;;;;;5050285;28;20025;-49
2023/10/13 17:16:49;;;;;;;8.07;4.88;;;;;;;;;;5050469;28;20494;-48
2023/10/13 17:19:15;;;;;;;10.25;5.53;;;;;;;;;;5034990;28;20090;-46
2023/10/13 17:21:40;;;;;;;7.75;5.25;;;;;;;;;;5045430;28;20045;-50
2023/10/13 17:24:06;;;;;;;8.77;4.57;;;;;;;;;;5056928;28;20757;-47
2023/10/13 17:26:32;;;;;;;7.57;4.50;;;;;;;;;;5053948;28;20029;-47
2023/10/13 17:29:08;;;;;;;8.02;4.82;;;;;;;;;;5048720;28;20115;-47
2023/10/13 17:31:34;;;;;;;10.63;5.03;;;;;;;;;;5042080;28;20041;-47
2023/10/13 17:34:00;;;;;;;9.05;6.55;;;;;;;;;;5056308;28;20058;-50
2023/10/13 17:36:28;;;;;;;6.78;5.53;;;;;;;;;;5051144;28;20636;-50
2023/10/13 17:38:53;;;;;;;7.25;5.53;;;;;;;;;;5047682;28;20028;-48
2023/10/13 17:41:20;;;;;;;8.63;5.80;;;;;;;;;;5056200;28;20504;-47
2023/10/13 17:43:46;;;;;;;10.95;5.35;;;;;;;;;;5054419;28;20059;-49
2023/10/13 17:46:13;;;;;;;7.63;5.00;;;;;;;;;;5054984;28;20100;-47
2023/10/13 17:48:39;;;;;;;7.47;5.90;;;;;;;;;;5053169;28;20064;-47
2023/10/13 17:51:08;;;;;;;8.80;5.10;;;;;;;;;;5056906;28;20037;-46
2023/10/13 17:53:35;;;;;;;10.50;5.22;;;;;;;;;;5049586;28;20059;-47
2023/10/13 17:56:10;;;;;;;8.70;5.97;;;;;;;;;;5051632;28;20028;-49
2023/10/13 17:58:42;;;;;;;7.10;5.38;;;;;;;;;;5046394;28;20032;-48
2023/10/13 18:01:21;;;;;;;7.70;5.63;;;;;;;;;;5056333;28;20406;-48
2023/10/13 18:03:48;;;;;;;6.43;5.22;;;;;;;;;;5048903;28;20545;-48
2023/10/13 18:06:16;;;;;;;12.38;6.95;;;;;;;;;;5048375;28;20040;-46
2023/10/13 18:08:43;;;;;;;9.38;5.65;;;;;;;;;;5050233;28;20055;-49
2023/10/13 18:11:12;;;;;;;8.73;5.68;;;;;;;;;;5057467;28;20104;-48
2023/10/13 18:13:41;;;;;;;9.05;6.57;;;;;;;;;;5045491;28;20650;-47
2023/10/13 18:16:17;;;;;;;10.60;6.80;;;;;;;;;;5055292;28;20041;-49
2023/10/13 18:18:43;;;;;;;8.43;5.80;;;;;;;;;;5051337;28;20136;-48
2023/10/13 18:21:10;;;;;;;8.65;5.60;;;;;;;;;;5051339;28;20033;-46
2023/10/13 18:23:36;;;;;;;8.77;6.22;;;;;;;;;;5056818;28;20116;-48
2023/10/13 18:26:05;;;;;;;6.55;5.38;;;;;;;;;;5055182;28;20069;-51
2023/10/13 18:28:35;;;;;;;9.23;6.68;;;;;;;;;;5057573;28;20116;-49
2023/10/13 18:31:04;;;;;;;7.63;6.00;;;;;;;;;;5046959;28;20056;-51